Accueil
METAR-TAF:

METAR-TAF

Aéroports :

Base aérienne de Chièvres

Chièvres, Belgique

latitude: 50-34N, longitude: 003-50E, altitude: 60 m

Observation

Le bulletin a été fait il y a 23 minutes, à 06:45 UTC
Vent 4 kt de ouest/nord-ouest
Température 14°C
Humidité 94%
Pression 1012 hPa
Visibilité 10 km ou plus

METAR: EBCV 270645Z AUTO 30004KT 9999 BKN045/// 14/13 Q1012 BLU

Heure: 09:08 (07:08 UTC)

Prévision

Le bulletin a été fait il y a 1 heure et 27 minutes, à 05:41 UTC
Prévision valable du 27 à 07 UTC au 27 à 16 UTC
Vent 4 kt de ouest
Nuages fragmentés à une hauteur de 4500 ft
Temporairement
du 27 à 07 UTC au 27 à 16 UTC
Nuages épars à une hauteur de 3000 ft
Evoluant progressivement
du 27 à 10 UTC au 27 à 12 UTC
Vent 8 kt de ouest

TAF: EBCV 270541Z 2707/2716 27004KT 99999 BKN045 TEMPO 2707/2716 SCT030 BECMG 2710/2712 27008KT BY EBWM

Observations et prévisions météorologiques de plus de 4000 aéroports (messages METAR et TAF).

Les stations disponibles sont représentées par des disques jaunes et rouges sur la carte.

Passer la souris dessus pour voir le nom de la station.

Cliquer dessus pour voir les observations et prévisions météorologiques.

Pour changer de carte: cliquez sur les boutons verts avec une croix noire pour zoomer, sur le bouton vert avec un tiret pour effectuer un zoom arrière, ou sur les flèches vertes pour les cartes adjacentes.


METAR-TAF: